• Join FlightAware (Why Join?)
  • Login
  • US Flag 
10:13AM EDT


 

Airport Tracker/Info


-or-


 

Live Flight TrackerFlight Track Log ✈ N577XW ✈ 19-Apr-2013 ✈ KRDU - KTUL

Flight Track Log - Related Links

Times and Time Zones

All times are in EDT time to prevent confusion due to time zone crossing. See the N577XW flight status page for this flight to view local times or setup timezone preferences in your user account.

Time Position Orientation Groundspeed Altitude Reporting Facility
EDT Latitude Longitude Course Direction KTS MPH feet Rate Location/Type
01:44PM 36.0853 -81.4014 276° West  Level Estimated
01:45PM 36.0930 -81.5153 275° West  Level Estimated
01:46PM 36.1007 -81.6293 275° West  Level Estimated
01:47PM 36.1082 -81.7433 275° West  Level Estimated
01:48PM 36.1156 -81.8573 275° West  Level Estimated
01:49PM 36.1229 -81.9713 275° West  Level Estimated
01:50PM 36.1301 -82.0854 275° West  Level Estimated
01:51PM 36.1372 -82.1994 274° West  Level Estimated
01:52PM 36.1442 -82.3136 274° West  Level Estimated
01:53PM 36.1511 -82.4277 274° West  Level Estimated
01:54PM 36.1578 -82.5418 274° West  Level Estimated
01:55PM 36.1645 -82.6560 274° West  Level Estimated
01:56PM 36.1710 -82.7701 274° West  Level Estimated
01:57PM 36.1775 -82.8843 274° West  Level Estimated
01:58PM 36.1838 -82.9985 274° West  Level Estimated
01:59PM 36.1900 -83.1128 274° West  Level Estimated
02:00PM 36.1961 -83.2270 274° West  Level Estimated
02:01PM 36.2021 -83.3413 274° West  Level Estimated
02:02PM 36.2080 -83.4556 274° West  Level Estimated
02:03PM 36.2138 -83.5699 274° West  Level Estimated
02:04PM 36.2195 -83.6842 274° West  Level Estimated
02:05PM 36.2251 -83.7978 273° West  Level Estimated
02:06PM 36.2305 -83.9127 273° West  Level Estimated
02:07PM 36.2359 -84.0277 273° West  Level Estimated
02:08PM 36.2412 -84.1428 273° West  Level Estimated
02:09PM 36.2464 -84.2581 273° West  Level Estimated
02:10PM 36.2515 -84.3735 273° West  Level Estimated
02:11PM 36.2564 -84.4888 273° West  Level Estimated
02:12PM 36.2613 -84.6042 273° West  Level Estimated
02:13PM 36.2660 -84.7196 273° West  Level Estimated
02:14PM 36.2705 -84.8311 273° West  Level Estimated
02:15PM 36.2748 -84.9426 273° West  Level Estimated
02:16PM 36.2791 -85.0542 273° West  Level Estimated
02:17PM 36.2833 -85.1657 273° West  Level Estimated
02:18PM 36.2874 -85.2789 273° West  Level Estimated
02:19PM 36.2914 -85.3920 273° West  Level Estimated
02:20PM 36.2953 -85.5052 272° West  Level Estimated
02:21PM 36.2991 -85.6186 272° West  Level Estimated
02:22PM 36.3028 -85.7320 272° West  Level Estimated
02:23PM 36.3064 -85.8455 272° West  Level Estimated
02:24PM 36.3098 -85.9589 272° West  Level Estimated
02:25PM 36.3132 -86.0733 272° West  Level Estimated
02:26PM 36.3165 -86.1855 272° West  Level Estimated
02:27PM 36.3196 -86.2978 272° West  Level Estimated
02:28PM 36.3227 -86.4128 272° West  Level Estimated
02:29PM 36.3257 -86.5278 272° West  Level Estimated
02:30PM 36.3285 -86.6428 272° West  Level Estimated
02:31PM 36.3313 -86.7578 272° West  Level Estimated
02:32PM 36.3339 -86.8710 272° West  Level Estimated
02:33PM 36.3364 -86.9842 272° West  Level Estimated
02:34PM 36.3388 -87.0973 272° West  Level Estimated
02:35PM 36.3411 -87.2105 271° West  Level Estimated
02:36PM 36.3433 -87.3237 271° West  Level Estimated
02:37PM 36.3453 -87.4369 271° West  Level Estimated
02:38PM 36.3473 -87.5501 271° West  Level Estimated
02:39PM 36.3492 -87.6633 271° West  Level Estimated
02:40PM 36.3509 -87.7765 271° West  Level Estimated
02:41PM 36.3526 -87.8897 271° West  Level Estimated
02:42PM 36.3541 -88.0030 271° West  Level Estimated
02:43PM 36.3555 -88.1162 271° West  Level Estimated
02:44PM 36.3569 -88.2294 271° West  Level Estimated
02:45PM 36.3581 -88.3427 271° West  Level Estimated
02:46PM 36.3592 -88.4559 271° West  Level Estimated
02:47PM 36.3602 -88.5691 271° West  Level Estimated
02:48PM 36.3611 -88.6824 271° West  Level Estimated
02:49PM 36.3619 -88.7956 271° West  Level Estimated
02:50PM 36.3626 -88.9089 270° West  Level Estimated
02:51PM 36.3632 -89.0221 270° West  Level Estimated
02:52PM 36.3636 -89.1354 270° West  Level Estimated
02:53PM 36.3640 -89.2486 270° West  Level Estimated
02:54PM 36.3643 -89.3619 270° West  Level Estimated
02:55PM 36.3644 -89.4751 270° West  Level Estimated
02:56PM 36.3644 -89.5884 270° West  Level Estimated
02:57PM 36.3644 -89.7016 270° West  Level Estimated
02:58PM 36.3642 -89.8149 270° West  Level Estimated
02:59PM 36.3639 -89.9281 270° West  Level Estimated
03:00PM 36.3635 -90.0414 270° West  Level Estimated
03:01PM 36.3631 -90.1546 270° West  Level Estimated
03:02PM 36.3513 -90.2655 263° West  Level FlightAware Approximate
03:03PM 36.3394 -90.3764 262° West  Level FlightAware Approximate
03:04PM 36.3274 -90.4872 262° West  Level FlightAware Approximate
03:05PM 36.3153 -90.5980 262° West  Level FlightAware Approximate
03:06PM 36.3031 -90.7087 262° West  Level FlightAware Approximate
03:07PM 36.2907 -90.8194 262° West  Level FlightAware Approximate
03:08PM 36.2897 -90.9316 269° West  Level FlightAware Approximate
03:09PM 36.2886 -91.0438 269° West  Level FlightAware Approximate
03:10PM 36.2873 -91.1560 269° West  Level FlightAware Approximate
03:11PM 36.2860 -91.2682 269° West  Level FlightAware Approximate
03:12PM 36.2845 -91.3803 269° West  Level FlightAware Approximate
03:13PM 36.2830 -91.4925 269° West  Level FlightAware Approximate
03:14PM 36.2813 -91.6046 269° West  Level FlightAware Approximate
03:15PM 36.2795 -91.7168 269° West  Level FlightAware Approximate
03:16PM 36.2776 -91.8289 269° West  Level FlightAware Approximate
03:17PM 36.2757 -91.9411 269° West  Level FlightAware Approximate
03:18PM 36.2736 -92.0532 269° West  Level FlightAware Approximate
03:19PM 36.2714 -92.1654 269° West  Level FlightAware Approximate
03:20PM 36.2691 -92.2775 269° West  Level FlightAware Approximate
03:21PM 36.2667 -92.3896 269° West  Level FlightAware Approximate
03:22PM 36.2642 -92.5017 268° West  Level FlightAware Approximate
03:23PM 36.2616 -92.6136 268° West  Level FlightAware Approximate
03:24PM 36.2765 -92.7213 280° West  Level FlightAware Approximate
03:25PM 36.2912 -92.8290 280° West  Level FlightAware Approximate
03:26PM 36.3059 -92.9368 280° West  Level FlightAware Approximate
03:27PM 36.3153 -93.0530 267° West  Level FlightAware Approximate
03:28PM 36.3120 -93.1625 268° West  Level FlightAware Approximate
03:29PM 36.3086 -93.2721 268° West  Level FlightAware Approximate
03:30PM 36.3051 -93.3810 268° West  Level FlightAware Approximate
03:31PM 36.3015 -93.4899 268° West  Level FlightAware Approximate
03:32PM 36.2978 -93.5988 268° West  Level FlightAware Approximate
03:33PM 36.2940 -93.7076 268° West  Level FlightAware Approximate
03:34PM 36.2901 -93.8165 267° West  Level FlightAware Approximate
03:35PM 36.2861 -93.9254 267° West  Level FlightAware Approximate
03:36PM 36.2752 -94.0327 253° West  Level FlightAware Approximate
03:37PM 36.2667 -94.1401 270° West  Level FlightAware Approximate
03:38PM 36.2667 -94.2490 270° West  Level FlightAware Approximate
03:39PM 36.2667 -94.3579 270° West  Level FlightAware Approximate
03:40PM 36.2615 -94.4667 266° West  Level FlightAware Approximate
03:41PM 36.2547 -94.5753 266° West  Level FlightAware Approximate
03:42PM 36.2500 -94.6840 270° West  Level FlightAware Approximate
03:43PM 36.2442 -94.7925 265° West  Level FlightAware Approximate
03:44PM 36.2359 -94.9009 265° West  Level FlightAware Approximate
03:45PM 36.2334 -95.0097 270° West  Level FlightAware Approximate
03:46PM 36.2333 -95.1186 270° West  Level FlightAware Approximate
03:47PM 36.2276 -95.2267 266° West  Level FlightAware Approximate
03:48PM 36.2208 -95.3347 266° West  Level FlightAware Approximate
03:49PM 36.2131 -95.4426 264° West  Level FlightAware Approximate
03:50PM 36.2042 -95.5504 264° West  Level FlightAware Approximate
03:50PM 36.2500 -94.9958 253° West 288 331 13,200  Level Kansas City Center
03:51PM 36.2000 -95.6585 270° West  Level FlightAware Approximate
03:51PM 36.2461 -95.0619 266° West 291 335 12,500  Level Kansas City Center
03:51PM 36.2431 -95.1031 265° West 290 334 12,100 -1,140 Descending Kansas City Center
03:52PM 36.2000 -95.7668 270° West  Level FlightAware Approximate
03:52PM 36.2403 -95.1611 267° West 288 331 11,400  Level Kansas City Center
03:52PM 36.2372 -95.2000 264° West 285 328 10,900 -1,200 Descending Kansas City Center
03:53PM 36.1860 -95.8725 253° West  Level FlightAware Approximate
03:53PM 36.2336 -95.2578 266° West 283 326 10,200  Level Kansas City Center
03:53PM 36.2292 -95.2942 261° West 278 320 9,700 -1,260 Descending Kansas City Center
03:54PM 36.1833 -95.8833 253° West  Level FlightAware Approximate
03:54PM 36.2267 -95.3486 267° West 271 312 8,900  Level Kansas City Center
03:55PM 36.1984 -95.8881 253° West  Level Estimated
03:55PM 36.2211 -95.4339 265° West 257 296 7,600  Level Kansas City Center
03:56PM 36.2153 -95.5269 266° West 221 254 6,400 -1,080 Descending Kansas City Center
03:57PM 36.2108 -95.5878 265° West 187 215 5,400 -960 Descending Kansas City Center
03:58PM 36.2056 -95.6464 264° West 176 203 4,500 -780 Descending Kansas City Center
03:59PM 36.1983 -95.7103 262° West 179 206 3,900 -840 Descending Kansas City Center
04:00PM 36.1950 -95.7742 266° West 184 212 2,800 -1,080 Descending Kansas City Center
04:01PM 36.1964 -95.8208 272° West 157 181 1,700 -900 Descending Kansas City Center
04:02PM 36.1958 -95.8586 269° West 131 151 1,000 -660 Descending Kansas City Center
04:04PM 36.1833 -95.8833 253° West  Level FlightAware Approximate